sensor_id;sensor_type;location;lat;lon;timestamp;P1;durP1;ratioP1;P2;durP2;ratioP2
72198;SDS011;60103;51.014;16.992;2022-11-20T00:01:19;48.00;;;19.20;;
72198;SDS011;60103;51.014;16.992;2022-11-20T00:03:52;50.40;;;19.60;;
72198;SDS011;60103;51.014;16.992;2022-11-20T00:06:21;46.30;;;17.30;;
72198;SDS011;60103;51.014;16.992;2022-11-20T00:08:50;38.90;;;13.20;;
72198;SDS011;60103;51.014;16.992;2022-11-20T00:11:20;39.70;;;11.90;;
72198;SDS011;60103;51.014;16.992;2022-11-20T00:13:49;41.70;;;15.00;;
72198;SDS011;60103;51.014;16.992;2022-11-20T00:16:19;45.70;;;15.90;;
72198;SDS011;60103;51.014;16.992;2022-11-20T00:18:49;42.00;;;14.50;;
72198;SDS011;60103;51.014;16.992;2022-11-20T00:21:21;47.70;;;17.50;;
72198;SDS011;60103;51.014;16.992;2022-11-20T00:23:50;48.90;;;16.10;;
72198;SDS011;60103;51.014;16.992;2022-11-20T00:26:21;52.00;;;17.30;;
72198;SDS011;60103;51.014;16.992;2022-11-20T00:28:50;39.80;;;13.80;;
72198;SDS011;60103;51.014;16.992;2022-11-20T00:31:19;35.20;;;13.10;;
72198;SDS011;60103;51.014;16.992;2022-11-20T00:33:47;34.40;;;11.70;;
72198;SDS011;60103;51.014;16.992;2022-11-20T00:36:16;33.30;;;12.00;;
72198;SDS011;60103;51.014;16.992;2022-11-20T00:38:46;34.70;;;11.80;;
72198;SDS011;60103;51.014;16.992;2022-11-20T00:41:15;34.30;;;11.00;;
72198;SDS011;60103;51.014;16.992;2022-11-20T00:43:42;36.60;;;11.40;;
72198;SDS011;60103;51.014;16.992;2022-11-20T00:46:15;38.70;;;13.80;;
72198;SDS011;60103;51.014;16.992;2022-11-20T00:48:44;44.00;;;13.90;;
72198;SDS011;60103;51.014;16.992;2022-11-20T00:51:12;39.20;;;14.50;;
72198;SDS011;60103;51.014;16.992;2022-11-20T00:53:41;39.00;;;14.10;;
72198;SDS011;60103;51.014;16.992;2022-11-20T00:56:13;41.00;;;14.00;;
72198;SDS011;60103;51.014;16.992;2022-11-20T00:58:44;38.60;;;13.30;;
72198;SDS011;60103;51.014;16.992;2022-11-20T01:03:52;42.40;;;15.20;;
72198;SDS011;60103;51.014;16.992;2022-11-20T01:06:26;41.90;;;15.30;;
72198;SDS011;60103;51.014;16.992;2022-11-20T01:08:57;39.70;;;13.20;;
72198;SDS011;60103;51.014;16.992;2022-11-20T01:11:30;39.10;;;13.30;;
72198;SDS011;60103;51.014;16.992;2022-11-20T01:14:00;44.70;;;16.10;;
72198;SDS011;60103;51.014;16.992;2022-11-20T01:16:29;34.80;;;13.40;;
72198;SDS011;60103;51.014;16.992;2022-11-20T01:19:01;38.30;;;13.60;;
72198;SDS011;60103;51.014;16.992;2022-11-20T01:21:34;40.50;;;15.30;;
72198;SDS011;60103;51.014;16.992;2022-11-20T01:24:06;39.10;;;13.20;;
72198;SDS011;60103;51.014;16.992;2022-11-20T01:26:37;39.30;;;14.20;;
72198;SDS011;60103;51.014;16.992;2022-11-20T01:29:05;40.40;;;14.00;;
72198;SDS011;60103;51.014;16.992;2022-11-20T01:31:34;42.50;;;14.00;;
72198;SDS011;60103;51.014;16.992;2022-11-20T01:34:07;36.30;;;13.10;;
72198;SDS011;60103;51.014;16.992;2022-11-20T01:36:39;37.20;;;13.60;;
72198;SDS011;60103;51.014;16.992;2022-11-20T01:39:09;33.50;;;13.00;;
72198;SDS011;60103;51.014;16.992;2022-11-20T01:41:38;37.50;;;13.00;;
72198;SDS011;60103;51.014;16.992;2022-11-20T01:47:33;36.60;;;12.20;;
72198;SDS011;60103;51.014;16.992;2022-11-20T01:50:09;36.30;;;12.30;;
72198;SDS011;60103;51.014;16.992;2022-11-20T01:52:45;34.40;;;12.80;;
72198;SDS011;60103;51.014;16.992;2022-11-20T01:55:19;39.30;;;12.70;;
72198;SDS011;60103;51.014;16.992;2022-11-20T01:57:58;27.60;;;10.40;;
72198;SDS011;60103;51.014;16.992;2022-11-20T02:00:25;33.10;;;12.60;;
72198;SDS011;60103;51.014;16.992;2022-11-20T02:02:53;30.10;;;10.60;;
72198;SDS011;60103;51.014;16.992;2022-11-20T02:05:27;35.00;;;10.30;;
72198;SDS011;60103;51.014;16.992;2022-11-20T02:07:58;25.10;;;7.90;;
72198;SDS011;60103;51.014;16.992;2022-11-20T02:10:28;22.40;;;7.00;;
72198;SDS011;60103;51.014;16.992;2022-11-20T02:12:56;22.00;;;7.40;;
72198;SDS011;60103;51.014;16.992;2022-11-20T02:15:42;31.90;;;10.10;;
72198;SDS011;60103;51.014;16.992;2022-11-20T02:18:11;35.80;;;10.70;;
72198;SDS011;60103;51.014;16.992;2022-11-20T02:20:39;30.90;;;12.10;;
72198;SDS011;60103;51.014;16.992;2022-11-20T02:25:45;29.70;;;9.90;;
72198;SDS011;60103;51.014;16.992;2022-11-20T02:28:13;28.10;;;10.00;;
72198;SDS011;60103;51.014;16.992;2022-11-20T02:30:42;29.50;;;10.10;;
72198;SDS011;60103;51.014;16.992;2022-11-20T02:33:09;27.00;;;9.50;;
72198;SDS011;60103;51.014;16.992;2022-11-20T02:35:41;23.40;;;7.40;;
72198;SDS011;60103;51.014;16.992;2022-11-20T02:38:10;26.30;;;8.60;;
72198;SDS011;60103;51.014;16.992;2022-11-20T02:40:37;24.80;;;7.50;;
72198;SDS011;60103;51.014;16.992;2022-11-20T02:43:04;27.40;;;8.40;;
72198;SDS011;60103;51.014;16.992;2022-11-20T02:45:31;21.50;;;7.70;;
72198;SDS011;60103;51.014;16.992;2022-11-20T02:47:59;17.40;;;5.40;;
72198;SDS011;60103;51.014;16.992;2022-11-20T02:50:27;20.00;;;6.50;;
72198;SDS011;60103;51.014;16.992;2022-11-20T02:52:54;22.80;;;6.80;;
72198;SDS011;60103;51.014;16.992;2022-11-20T02:55:21;22.00;;;8.10;;
72198;SDS011;60103;51.014;16.992;2022-11-20T02:57:49;25.50;;;9.20;;
72198;SDS011;60103;51.014;16.992;2022-11-20T03:00:17;26.10;;;8.70;;
72198;SDS011;60103;51.014;16.992;2022-11-20T03:02:46;24.90;;;8.50;;
72198;SDS011;60103;51.014;16.992;2022-11-20T03:05:13;27.00;;;9.00;;
72198;SDS011;60103;51.014;16.992;2022-11-20T03:07:41;21.60;;;7.80;;
72198;SDS011;60103;51.014;16.992;2022-11-20T03:10:10;25.50;;;9.00;;
72198;SDS011;60103;51.014;16.992;2022-11-20T03:12:38;29.70;;;9.10;;
72198;SDS011;60103;51.014;16.992;2022-11-20T03:15:05;24.80;;;8.80;;
72198;SDS011;60103;51.014;16.992;2022-11-20T03:17:33;25.00;;;9.30;;
72198;SDS011;60103;51.014;16.992;2022-11-20T03:20:02;26.90;;;8.70;;
72198;SDS011;60103;51.014;16.992;2022-11-20T03:22:30;24.10;;;8.90;;
72198;SDS011;60103;51.014;16.992;2022-11-20T03:24:57;25.80;;;8.70;;
72198;SDS011;60103;51.014;16.992;2022-11-20T03:27:24;24.30;;;8.20;;
72198;SDS011;60103;51.014;16.992;2022-11-20T03:29:51;26.00;;;8.90;;
72198;SDS011;60103;51.014;16.992;2022-11-20T03:32:19;23.70;;;8.20;;
72198;SDS011;60103;51.014;16.992;2022-11-20T03:34:47;29.00;;;10.70;;
72198;SDS011;60103;51.014;16.992;2022-11-20T03:37:14;23.80;;;9.00;;
72198;SDS011;60103;51.014;16.992;2022-11-20T03:39:41;26.00;;;9.10;;
72198;SDS011;60103;51.014;16.992;2022-11-20T03:42:08;24.90;;;9.20;;
72198;SDS011;60103;51.014;16.992;2022-11-20T03:44:56;28.40;;;9.70;;
72198;SDS011;60103;51.014;16.992;2022-11-20T03:47:23;26.90;;;9.00;;
72198;SDS011;60103;51.014;16.992;2022-11-20T03:49:50;27.00;;;9.10;;
72198;SDS011;60103;51.014;16.992;2022-11-20T03:52:18;26.40;;;9.50;;
72198;SDS011;60103;51.014;16.992;2022-11-20T03:54:46;24.50;;;9.20;;
72198;SDS011;60103;51.014;16.992;2022-11-20T03:57:14;28.00;;;9.60;;
72198;SDS011;60103;51.014;16.992;2022-11-20T03:59:41;24.00;;;8.30;;
72198;SDS011;60103;51.014;16.992;2022-11-20T04:02:09;25.70;;;9.00;;
72198;SDS011;60103;51.014;16.992;2022-11-20T04:04:36;27.20;;;8.90;;
72198;SDS011;60103;51.014;16.992;2022-11-20T04:07:03;28.90;;;9.10;;
72198;SDS011;60103;51.014;16.992;2022-11-20T04:09:30;29.50;;;10.00;;
72198;SDS011;60103;51.014;16.992;2022-11-20T04:11:58;29.80;;;10.40;;
72198;SDS011;60103;51.014;16.992;2022-11-20T04:14:25;31.30;;;10.60;;
72198;SDS011;60103;51.014;16.992;2022-11-20T04:16:53;29.40;;;11.10;;
72198;SDS011;60103;51.014;16.992;2022-11-20T04:19:22;37.80;;;12.70;;
72198;SDS011;60103;51.014;16.992;2022-11-20T04:21:49;30.30;;;11.60;;
72198;SDS011;60103;51.014;16.992;2022-11-20T04:24:17;29.60;;;11.70;;
72198;SDS011;60103;51.014;16.992;2022-11-20T04:26:44;31.90;;;11.80;;
72198;SDS011;60103;51.014;16.992;2022-11-20T04:29:11;32.10;;;11.10;;
72198;SDS011;60103;51.014;16.992;2022-11-20T04:31:39;27.30;;;10.70;;
72198;SDS011;60103;51.014;16.992;2022-11-20T04:34:06;35.90;;;14.00;;
72198;SDS011;60103;51.014;16.992;2022-11-20T04:36:34;40.20;;;14.00;;
72198;SDS011;60103;51.014;16.992;2022-11-20T04:39:03;34.70;;;12.20;;
72198;SDS011;60103;51.014;16.992;2022-11-20T04:41:32;37.40;;;12.40;;
72198;SDS011;60103;51.014;16.992;2022-11-20T04:44:02;32.20;;;11.50;;
72198;SDS011;60103;51.014;16.992;2022-11-20T04:46:31;31.90;;;11.90;;
72198;SDS011;60103;51.014;16.992;2022-11-20T04:49:00;37.40;;;13.00;;
72198;SDS011;60103;51.014;16.992;2022-11-20T04:51:28;35.40;;;11.80;;
72198;SDS011;60103;51.014;16.992;2022-11-20T04:53:55;35.60;;;13.40;;
72198;SDS011;60103;51.014;16.992;2022-11-20T04:56:23;36.70;;;12.90;;
72198;SDS011;60103;51.014;16.992;2022-11-20T04:58:50;31.00;;;11.50;;
72198;SDS011;60103;51.014;16.992;2022-11-20T05:01:18;30.70;;;11.80;;
72198;SDS011;60103;51.014;16.992;2022-11-20T05:03:48;41.20;;;13.30;;
72198;SDS011;60103;51.014;16.992;2022-11-20T05:06:19;33.20;;;12.20;;
72198;SDS011;60103;51.014;16.992;2022-11-20T05:08:49;36.20;;;12.40;;
72198;SDS011;60103;51.014;16.992;2022-11-20T05:11:18;32.10;;;11.20;;
72198;SDS011;60103;51.014;16.992;2022-11-20T05:13:48;32.30;;;11.80;;
72198;SDS011;60103;51.014;16.992;2022-11-20T05:16:25;33.30;;;12.30;;
72198;SDS011;60103;51.014;16.992;2022-11-20T05:18:53;31.20;;;12.50;;
72198;SDS011;60103;51.014;16.992;2022-11-20T05:21:22;34.40;;;13.30;;
72198;SDS011;60103;51.014;16.992;2022-11-20T05:23:49;29.00;;;10.90;;
72198;SDS011;60103;51.014;16.992;2022-11-20T05:26:17;33.10;;;12.20;;
72198;SDS011;60103;51.014;16.992;2022-11-20T05:28:46;33.40;;;10.70;;
72198;SDS011;60103;51.014;16.992;2022-11-20T05:31:23;30.30;;;10.80;;
72198;SDS011;60103;51.014;16.992;2022-11-20T05:33:54;32.70;;;11.80;;
72198;SDS011;60103;51.014;16.992;2022-11-20T05:36:23;36.90;;;11.10;;
72198;SDS011;60103;51.014;16.992;2022-11-20T05:38:50;28.40;;;10.80;;
72198;SDS011;60103;51.014;16.992;2022-11-20T05:41:25;37.70;;;12.70;;
72198;SDS011;60103;51.014;16.992;2022-11-20T05:43:52;32.10;;;11.40;;
72198;SDS011;60103;51.014;16.992;2022-11-20T05:46:20;34.10;;;11.80;;
72198;SDS011;60103;51.014;16.992;2022-11-20T05:48:54;33.10;;;10.90;;
72198;SDS011;60103;51.014;16.992;2022-11-20T05:51:23;38.20;;;12.50;;
72198;SDS011;60103;51.014;16.992;2022-11-20T05:53:55;30.00;;;11.20;;
72198;SDS011;60103;51.014;16.992;2022-11-20T05:56:23;34.50;;;11.80;;
72198;SDS011;60103;51.014;16.992;2022-11-20T05:58:51;31.70;;;11.80;;
72198;SDS011;60103;51.014;16.992;2022-11-20T06:01:22;40.30;;;12.00;;
72198;SDS011;60103;51.014;16.992;2022-11-20T06:03:52;45.90;;;14.20;;
72198;SDS011;60103;51.014;16.992;2022-11-20T06:06:20;37.60;;;13.30;;
72198;SDS011;60103;51.014;16.992;2022-11-20T06:08:47;33.70;;;12.60;;
72198;SDS011;60103;51.014;16.992;2022-11-20T06:11:15;37.20;;;14.30;;
72198;SDS011;60103;51.014;16.992;2022-11-20T06:13:43;42.40;;;14.70;;
72198;SDS011;60103;51.014;16.992;2022-11-20T06:16:12;47.10;;;14.60;;
72198;SDS011;60103;51.014;16.992;2022-11-20T06:18:40;46.90;;;15.00;;
72198;SDS011;60103;51.014;16.992;2022-11-20T06:21:12;43.50;;;15.20;;
72198;SDS011;60103;51.014;16.992;2022-11-20T06:23:47;43.90;;;14.90;;
72198;SDS011;60103;51.014;16.992;2022-11-20T06:28:44;43.60;;;16.40;;
72198;SDS011;60103;51.014;16.992;2022-11-20T06:31:12;41.50;;;14.50;;
72198;SDS011;60103;51.014;16.992;2022-11-20T06:33:41;35.70;;;12.90;;
72198;SDS011;60103;51.014;16.992;2022-11-20T06:36:12;39.60;;;13.00;;
72198;SDS011;60103;51.014;16.992;2022-11-20T06:38:41;40.10;;;15.10;;
72198;SDS011;60103;51.014;16.992;2022-11-20T06:41:10;58.10;;;20.00;;
72198;SDS011;60103;51.014;16.992;2022-11-20T06:43:40;48.40;;;17.40;;
72198;SDS011;60103;51.014;16.992;2022-11-20T06:46:09;49.80;;;16.00;;
72198;SDS011;60103;51.014;16.992;2022-11-20T06:48:37;48.00;;;18.10;;
72198;SDS011;60103;51.014;16.992;2022-11-20T06:51:05;48.00;;;17.50;;
72198;SDS011;60103;51.014;16.992;2022-11-20T06:53:34;46.50;;;17.10;;
72198;SDS011;60103;51.014;16.992;2022-11-20T06:56:03;46.10;;;16.50;;
72198;SDS011;60103;51.014;16.992;2022-11-20T06:58:31;45.10;;;16.40;;
72198;SDS011;60103;51.014;16.992;2022-11-20T07:01:00;43.70;;;14.80;;
72198;SDS011;60103;51.014;16.992;2022-11-20T07:03:28;36.90;;;14.20;;
72198;SDS011;60103;51.014;16.992;2022-11-20T07:05:55;42.00;;;15.30;;
72198;SDS011;60103;51.014;16.992;2022-11-20T07:08:24;44.50;;;15.90;;
72198;SDS011;60103;51.014;16.992;2022-11-20T07:10:51;43.10;;;14.70;;
72198;SDS011;60103;51.014;16.992;2022-11-20T07:13:19;40.00;;;13.80;;
72198;SDS011;60103;51.014;16.992;2022-11-20T07:15:46;44.90;;;16.50;;
72198;SDS011;60103;51.014;16.992;2022-11-20T07:18:13;39.60;;;14.40;;
72198;SDS011;60103;51.014;16.992;2022-11-20T07:20:41;36.00;;;13.30;;
72198;SDS011;60103;51.014;16.992;2022-11-20T07:23:08;34.50;;;11.20;;
72198;SDS011;60103;51.014;16.992;2022-11-20T07:25:35;34.70;;;12.10;;
72198;SDS011;60103;51.014;16.992;2022-11-20T07:28:02;32.00;;;10.80;;
72198;SDS011;60103;51.014;16.992;2022-11-20T07:30:30;27.30;;;10.50;;
72198;SDS011;60103;51.014;16.992;2022-11-20T07:32:58;27.90;;;9.70;;
72198;SDS011;60103;51.014;16.992;2022-11-20T07:35:26;27.60;;;10.50;;
72198;SDS011;60103;51.014;16.992;2022-11-20T07:37:53;34.20;;;12.70;;
72198;SDS011;60103;51.014;16.992;2022-11-20T07:40:20;29.90;;;10.10;;
72198;SDS011;60103;51.014;16.992;2022-11-20T07:42:52;34.90;;;10.20;;
72198;SDS011;60103;51.014;16.992;2022-11-20T07:45:21;31.00;;;11.40;;
72198;SDS011;60103;51.014;16.992;2022-11-20T07:47:51;28.60;;;10.10;;
72198;SDS011;60103;51.014;16.992;2022-11-20T07:50:19;35.50;;;11.30;;
72198;SDS011;60103;51.014;16.992;2022-11-20T07:52:46;25.40;;;10.00;;
72198;SDS011;60103;51.014;16.992;2022-11-20T07:55:15;31.10;;;10.50;;
72198;SDS011;60103;51.014;16.992;2022-11-20T07:57:42;28.30;;;9.50;;
72198;SDS011;60103;51.014;16.992;2022-11-20T08:00:10;26.70;;;9.90;;
72198;SDS011;60103;51.014;16.992;2022-11-20T08:02:38;31.60;;;12.10;;
72198;SDS011;60103;51.014;16.992;2022-11-20T08:05:07;36.80;;;11.70;;
72198;SDS011;60103;51.014;16.992;2022-11-20T08:07:36;23.80;;;8.80;;
72198;SDS011;60103;51.014;16.992;2022-11-20T08:10:08;23.90;;;8.50;;
72198;SDS011;60103;51.014;16.992;2022-11-20T08:12:47;34.30;;;12.50;;
72198;SDS011;60103;51.014;16.992;2022-11-20T08:15:34;26.40;;;9.20;;
72198;SDS011;60103;51.014;16.992;2022-11-20T08:18:04;29.50;;;9.70;;
72198;SDS011;60103;51.014;16.992;2022-11-20T08:20:54;28.20;;;9.90;;
72198;SDS011;60103;51.014;16.992;2022-11-20T08:23:22;31.70;;;11.20;;
72198;SDS011;60103;51.014;16.992;2022-11-20T08:25:50;33.10;;;12.90;;
72198;SDS011;60103;51.014;16.992;2022-11-20T08:28:18;32.60;;;12.90;;
72198;SDS011;60103;51.014;16.992;2022-11-20T08:30:48;30.10;;;11.70;;
72198;SDS011;60103;51.014;16.992;2022-11-20T08:33:17;18.50;;;7.80;;
72198;SDS011;60103;51.014;16.992;2022-11-20T08:35:45;23.90;;;8.60;;
72198;SDS011;60103;51.014;16.992;2022-11-20T08:38:12;20.50;;;8.10;;
72198;SDS011;60103;51.014;16.992;2022-11-20T08:40:40;26.10;;;10.60;;
72198;SDS011;60103;51.014;16.992;2022-11-20T08:43:07;27.50;;;8.60;;
72198;SDS011;60103;51.014;16.992;2022-11-20T08:45:34;20.40;;;7.10;;
72198;SDS011;60103;51.014;16.992;2022-11-20T08:48:03;21.40;;;7.30;;
72198;SDS011;60103;51.014;16.992;2022-11-20T08:50:31;22.80;;;7.50;;
72198;SDS011;60103;51.014;16.992;2022-11-20T08:53:03;21.80;;;7.70;;
72198;SDS011;60103;51.014;16.992;2022-11-20T08:55:31;16.50;;;5.70;;
72198;SDS011;60103;51.014;16.992;2022-11-20T08:58:02;21.20;;;8.20;;
72198;SDS011;60103;51.014;16.992;2022-11-20T09:00:30;24.50;;;7.80;;
72198;SDS011;60103;51.014;16.992;2022-11-20T09:02:59;32.10;;;10.20;;
72198;SDS011;60103;51.014;16.992;2022-11-20T09:05:28;25.80;;;9.80;;
72198;SDS011;60103;51.014;16.992;2022-11-20T09:07:57;21.30;;;7.70;;
72198;SDS011;60103;51.014;16.992;2022-11-20T09:10:26;17.60;;;5.90;;
72198;SDS011;60103;51.014;16.992;2022-11-20T09:12:54;22.00;;;8.60;;
72198;SDS011;60103;51.014;16.992;2022-11-20T09:15:23;21.50;;;7.70;;
72198;SDS011;60103;51.014;16.992;2022-11-20T09:20:19;27.40;;;9.40;;
72198;SDS011;60103;51.014;16.992;2022-11-20T09:22:48;27.10;;;9.10;;
72198;SDS011;60103;51.014;16.992;2022-11-20T09:25:16;28.40;;;9.90;;
72198;SDS011;60103;51.014;16.992;2022-11-20T09:27:43;18.50;;;7.00;;
72198;SDS011;60103;51.014;16.992;2022-11-20T09:30:13;27.60;;;10.60;;
72198;SDS011;60103;51.014;16.992;2022-11-20T09:32:42;35.00;;;11.80;;
72198;SDS011;60103;51.014;16.992;2022-11-20T09:35:11;33.30;;;13.20;;
72198;SDS011;60103;51.014;16.992;2022-11-20T09:37:38;33.90;;;11.20;;
72198;SDS011;60103;51.014;16.992;2022-11-20T09:40:10;25.40;;;9.10;;
72198;SDS011;60103;51.014;16.992;2022-11-20T09:48:42;31.10;;;11.10;;
72198;SDS011;60103;51.014;16.992;2022-11-20T09:51:21;27.80;;;10.00;;
72198;SDS011;60103;51.014;16.992;2022-11-20T09:54:16;28.60;;;11.40;;
72198;SDS011;60103;51.014;16.992;2022-11-20T09:56:46;29.30;;;11.00;;
72198;SDS011;60103;51.014;16.992;2022-11-20T10:02:12;24.40;;;9.70;;
72198;SDS011;60103;51.014;16.992;2022-11-20T10:04:44;26.00;;;9.30;;
72198;SDS011;60103;51.014;16.992;2022-11-20T10:07:30;27.60;;;9.60;;
72198;SDS011;60103;51.014;16.992;2022-11-20T10:26:32;22.80;;;8.20;;
72198;SDS011;60103;51.014;16.992;2022-11-20T10:29:13;25.60;;;7.70;;
72198;SDS011;60103;51.014;16.992;2022-11-20T10:32:24;16.30;;;5.90;;
72198;SDS011;60103;51.014;16.992;2022-11-20T10:34:57;21.50;;;7.90;;
72198;SDS011;60103;51.014;16.992;2022-11-20T10:37:29;18.70;;;6.60;;
72198;SDS011;60103;51.014;16.992;2022-11-20T10:40:00;20.90;;;6.80;;
72198;SDS011;60103;51.014;16.992;2022-11-20T10:42:41;22.80;;;8.10;;
72198;SDS011;60103;51.014;16.992;2022-11-20T10:45:26;22.90;;;8.10;;
72198;SDS011;60103;51.014;16.992;2022-11-20T10:50:36;21.60;;;7.50;;
72198;SDS011;60103;51.014;16.992;2022-11-20T10:55:42;25.40;;;9.80;;
72198;SDS011;60103;51.014;16.992;2022-11-20T10:58:20;23.70;;;8.70;;
72198;SDS011;60103;51.014;16.992;2022-11-20T11:01:16;24.50;;;9.50;;
72198;SDS011;60103;51.014;16.992;2022-11-20T11:04:07;24.20;;;9.50;;
72198;SDS011;60103;51.014;16.992;2022-11-20T11:06:48;25.10;;;9.70;;
72198;SDS011;60103;51.014;16.992;2022-11-20T11:09:17;22.60;;;8.40;;
72198;SDS011;60103;51.014;16.992;2022-11-20T11:11:50;22.20;;;8.40;;
72198;SDS011;60103;51.014;16.992;2022-11-20T11:14:17;16.60;;;6.30;;
72198;SDS011;60103;51.014;16.992;2022-11-20T11:16:51;17.50;;;6.70;;
72198;SDS011;60103;51.014;16.992;2022-11-20T11:19:23;19.70;;;7.50;;
72198;SDS011;60103;51.014;16.992;2022-11-20T11:21:55;16.80;;;6.90;;
72198;SDS011;60103;51.014;16.992;2022-11-20T11:24:27;18.80;;;7.40;;
72198;SDS011;60103;51.014;16.992;2022-11-20T11:27:12;15.40;;;5.80;;
72198;SDS011;60103;51.014;16.992;2022-11-20T11:29:44;19.30;;;6.70;;
72198;SDS011;60103;51.014;16.992;2022-11-20T11:32:13;20.40;;;7.10;;
72198;SDS011;60103;51.014;16.992;2022-11-20T11:34:41;19.40;;;7.00;;
72198;SDS011;60103;51.014;16.992;2022-11-20T11:37:18;20.80;;;7.60;;
72198;SDS011;60103;51.014;16.992;2022-11-20T11:39:48;19.40;;;7.10;;
72198;SDS011;60103;51.014;16.992;2022-11-20T11:42:35;13.80;;;5.70;;
72198;SDS011;60103;51.014;16.992;2022-11-20T11:45:14;18.90;;;6.90;;
72198;SDS011;60103;51.014;16.992;2022-11-20T11:47:45;18.20;;;6.60;;
72198;SDS011;60103;51.014;16.992;2022-11-20T11:50:20;16.40;;;4.50;;
72198;SDS011;60103;51.014;16.992;2022-11-20T11:55:36;17.90;;;7.10;;
72198;SDS011;60103;51.014;16.992;2022-11-20T12:04:04;18.10;;;6.80;;
72198;SDS011;60103;51.014;16.992;2022-11-20T12:06:35;18.80;;;6.90;;
72198;SDS011;60103;51.014;16.992;2022-11-20T12:09:05;21.90;;;8.80;;
72198;SDS011;60103;51.014;16.992;2022-11-20T12:11:44;23.20;;;7.90;;
72198;SDS011;60103;51.014;16.992;2022-11-20T12:14:20;22.40;;;7.90;;
72198;SDS011;60103;51.014;16.992;2022-11-20T12:16:54;23.20;;;7.20;;
72198;SDS011;60103;51.014;16.992;2022-11-20T12:19:24;21.00;;;6.90;;
72198;SDS011;60103;51.014;16.992;2022-11-20T12:24:41;16.60;;;5.60;;
72198;SDS011;60103;51.014;16.992;2022-11-20T12:30:20;19.90;;;7.50;;
72198;SDS011;60103;51.014;16.992;2022-11-20T12:39:22;18.20;;;6.70;;
72198;SDS011;60103;51.014;16.992;2022-11-20T12:45:12;17.20;;;6.40;;
72198;SDS011;60103;51.014;16.992;2022-11-20T12:56:44;16.70;;;6.00;;
72198;SDS011;60103;51.014;16.992;2022-11-20T13:02:25;16.40;;;6.40;;
72198;SDS011;60103;51.014;16.992;2022-11-20T13:05:11;17.80;;;6.80;;
72198;SDS011;60103;51.014;16.992;2022-11-20T13:08:02;14.70;;;5.50;;
72198;SDS011;60103;51.014;16.992;2022-11-20T13:10:35;15.80;;;5.40;;
72198;SDS011;60103;51.014;16.992;2022-11-20T13:16:27;13.50;;;4.50;;
72198;SDS011;60103;51.014;16.992;2022-11-20T13:19:21;11.00;;;3.90;;
72198;SDS011;60103;51.014;16.992;2022-11-20T13:21:50;15.90;;;5.90;;
72198;SDS011;60103;51.014;16.992;2022-11-20T13:24:26;14.50;;;5.20;;
72198;SDS011;60103;51.014;16.992;2022-11-20T13:27:04;14.70;;;5.00;;
72198;SDS011;60103;51.014;16.992;2022-11-20T13:29:32;15.70;;;5.50;;
72198;SDS011;60103;51.014;16.992;2022-11-20T13:32:14;12.90;;;3.90;;
72198;SDS011;60103;51.014;16.992;2022-11-20T13:37:28;15.70;;;5.80;;
72198;SDS011;60103;51.014;16.992;2022-11-20T13:40:19;18.00;;;5.90;;
72198;SDS011;60103;51.014;16.992;2022-11-20T13:45:29;16.80;;;6.80;;
72198;SDS011;60103;51.014;16.992;2022-11-20T13:48:15;17.80;;;6.40;;
72198;SDS011;60103;51.014;16.992;2022-11-20T13:51:05;18.00;;;6.70;;
72198;SDS011;60103;51.014;16.992;2022-11-20T13:56:17;17.00;;;6.30;;
72198;SDS011;60103;51.014;16.992;2022-11-20T14:02:14;18.30;;;6.30;;
72198;SDS011;60103;51.014;16.992;2022-11-20T14:04:50;17.90;;;6.60;;
72198;SDS011;60103;51.014;16.992;2022-11-20T14:07:20;17.40;;;6.40;;
72198;SDS011;60103;51.014;16.992;2022-11-20T14:09:53;17.70;;;6.50;;
72198;SDS011;60103;51.014;16.992;2022-11-20T14:12:32;19.00;;;7.20;;
72198;SDS011;60103;51.014;16.992;2022-11-20T14:15:01;20.00;;;7.40;;
72198;SDS011;60103;51.014;16.992;2022-11-20T14:17:34;19.10;;;7.40;;
72198;SDS011;60103;51.014;16.992;2022-11-20T14:20:06;19.30;;;6.80;;
72198;SDS011;60103;51.014;16.992;2022-11-20T14:22:47;19.90;;;8.00;;
72198;SDS011;60103;51.014;16.992;2022-11-20T14:25:18;21.20;;;8.10;;
72198;SDS011;60103;51.014;16.992;2022-11-20T14:27:58;21.00;;;7.30;;
72198;SDS011;60103;51.014;16.992;2022-11-20T14:30:39;22.30;;;8.10;;
72198;SDS011;60103;51.014;16.992;2022-11-20T14:33:12;20.40;;;7.50;;
72198;SDS011;60103;51.014;16.992;2022-11-20T14:35:44;22.10;;;8.00;;
72198;SDS011;60103;51.014;16.992;2022-11-20T14:38:14;23.50;;;8.70;;
72198;SDS011;60103;51.014;16.992;2022-11-20T14:40:43;22.00;;;7.80;;
72198;SDS011;60103;51.014;16.992;2022-11-20T14:43:22;21.70;;;8.00;;
72198;SDS011;60103;51.014;16.992;2022-11-20T14:45:58;21.00;;;7.20;;
72198;SDS011;60103;51.014;16.992;2022-11-20T14:48:29;22.30;;;8.30;;
72198;SDS011;60103;51.014;16.992;2022-11-20T14:50:59;22.80;;;8.00;;
72198;SDS011;60103;51.014;16.992;2022-11-20T14:53:27;20.80;;;7.90;;
72198;SDS011;60103;51.014;16.992;2022-11-20T14:55:59;24.40;;;7.90;;
72198;SDS011;60103;51.014;16.992;2022-11-20T14:58:29;20.70;;;7.70;;
72198;SDS011;60103;51.014;16.992;2022-11-20T15:01:00;21.50;;;7.80;;
72198;SDS011;60103;51.014;16.992;2022-11-20T15:03:32;21.00;;;8.30;;
72198;SDS011;60103;51.014;16.992;2022-11-20T15:06:01;22.10;;;8.40;;
72198;SDS011;60103;51.014;16.992;2022-11-20T15:08:33;22.30;;;8.10;;
72198;SDS011;60103;51.014;16.992;2022-11-20T15:11:01;18.20;;;7.60;;
72198;SDS011;60103;51.014;16.992;2022-11-20T15:13:31;21.80;;;9.50;;
72198;SDS011;60103;51.014;16.992;2022-11-20T15:16:08;23.60;;;8.60;;
72198;SDS011;60103;51.014;16.992;2022-11-20T15:18:44;23.60;;;9.10;;
72198;SDS011;60103;51.014;16.992;2022-11-20T15:21:21;27.30;;;11.50;;
72198;SDS011;60103;51.014;16.992;2022-11-20T15:23:49;26.30;;;9.70;;
72198;SDS011;60103;51.014;16.992;2022-11-20T15:26:22;26.40;;;9.90;;
72198;SDS011;60103;51.014;16.992;2022-11-20T15:28:53;27.10;;;10.70;;
72198;SDS011;60103;51.014;16.992;2022-11-20T15:31:22;24.20;;;10.40;;
72198;SDS011;60103;51.014;16.992;2022-11-20T15:33:51;23.70;;;8.80;;
72198;SDS011;60103;51.014;16.992;2022-11-20T15:36:20;24.10;;;8.40;;
72198;SDS011;60103;51.014;16.992;2022-11-20T15:38:49;28.50;;;10.00;;
72198;SDS011;60103;51.014;16.992;2022-11-20T15:41:17;27.00;;;10.00;;
72198;SDS011;60103;51.014;16.992;2022-11-20T15:43:45;29.30;;;9.90;;
72198;SDS011;60103;51.014;16.992;2022-11-20T15:46:14;27.70;;;9.80;;
72198;SDS011;60103;51.014;16.992;2022-11-20T15:48:45;33.60;;;11.10;;
72198;SDS011;60103;51.014;16.992;2022-11-20T15:51:32;33.10;;;12.10;;
72198;SDS011;60103;51.014;16.992;2022-11-20T15:54:13;33.60;;;13.10;;
72198;SDS011;60103;51.014;16.992;2022-11-20T15:56:41;37.50;;;13.50;;
72198;SDS011;60103;51.014;16.992;2022-11-20T15:59:09;38.50;;;14.30;;
72198;SDS011;60103;51.014;16.992;2022-11-20T16:01:37;42.70;;;14.30;;
72198;SDS011;60103;51.014;16.992;2022-11-20T16:04:13;38.80;;;14.40;;
72198;SDS011;60103;51.014;16.992;2022-11-20T16:06:43;31.20;;;13.40;;
72198;SDS011;60103;51.014;16.992;2022-11-20T16:09:12;34.60;;;12.60;;
72198;SDS011;60103;51.014;16.992;2022-11-20T16:11:41;35.40;;;12.80;;
72198;SDS011;60103;51.014;16.992;2022-11-20T16:14:09;33.60;;;12.30;;